METAR Data
IDs: Format: Raw Decoded Include TAF

Data at: 0347 UTC 06 Dec 2019

METAR for:KBNW (Boone Muni, IA, US)
Text:KBNW 060335Z AUTO 35018G23KT 10SM CLR 01/01 A3003 RMK AO2
Temperature: 1.0°C ( 34°F)
Dewpoint: 1.0°C ( 34°F) [RH = 100%]
Pressure (altimeter):30.03 inches Hg (1017.0 mb)
Winds:from the N (350 degrees) at 21 MPH (18 knots; 9.3 m/s) gusting to 26 MPH (23 knots; 11.8 m/s)
Visibility:10 or more sm (16+ km)
Ceiling:at least 12,000 feet AGL
Clouds:sky clear below 12,000 feet AGL
QC Flag:automated observation with no human augmentation